createdAt,value
2018-02-14T00:00:12.745Z,25.15
2018-02-14T00:02:39.441Z,23.65
2018-02-14T00:05:06.078Z,23.00
2018-02-14T00:07:32.718Z,23.87
2018-02-14T00:09:59.461Z,23.25
2018-02-14T00:12:26.101Z,25.40
2018-02-14T00:14:52.738Z,25.27
2018-02-14T00:17:19.361Z,27.05
2018-02-14T00:19:45.970Z,25.50
2018-02-14T00:22:12.577Z,24.58
2018-02-14T00:24:39.293Z,26.27
2018-02-14T00:27:05.905Z,25.05
2018-02-14T00:29:32.573Z,26.75
2018-02-14T00:31:59.263Z,26.17
2018-02-14T00:34:25.893Z,27.40
2018-02-14T00:36:52.496Z,27.70
2018-02-14T00:39:19.121Z,27.85
2018-02-14T00:41:45.764Z,28.67
2018-02-14T00:44:12.386Z,29.10
2018-02-14T00:46:39.018Z,30.75
2018-02-14T00:49:05.626Z,27.50
2018-02-14T00:51:32.258Z,28.02
2018-02-14T00:53:59.006Z,26.50
2018-02-14T00:56:25.704Z,29.45
2018-02-14T00:58:52.346Z,26.60
2018-02-14T01:01:18.953Z,25.08
2018-02-14T01:03:45.566Z,27.73
2018-02-14T01:06:12.203Z,25.70
2018-02-14T01:08:38.805Z,25.98
2018-02-14T01:11:05.441Z,25.12
2018-02-14T01:13:32.056Z,24.10
2018-02-14T01:15:58.720Z,25.40
2018-02-14T01:18:25.341Z,27.23
2018-02-14T01:20:51.957Z,26.02
2018-02-14T01:23:18.574Z,26.35
2018-02-14T01:25:45.193Z,27.08
2018-02-14T01:28:11.909Z,26.83
2018-02-14T01:30:38.538Z,25.30
2018-02-14T01:33:05.185Z,26.73
2018-02-14T01:35:31.830Z,26.25
2018-02-14T01:37:58.464Z,26.20
2018-02-14T01:40:25.075Z,26.85
2018-02-14T01:42:51.685Z,26.42
2018-02-14T01:45:18.386Z,26.45
2018-02-14T01:47:45.007Z,27.35
2018-02-14T01:50:11.643Z,26.65
2018-02-14T01:52:38.257Z,27.27
2018-02-14T01:55:04.865Z,27.17
2018-02-14T01:57:31.490Z,28.70
2018-02-14T01:59:58.125Z,27.85
2018-02-14T02:02:24.745Z,26.30
2018-02-14T02:04:51.357Z,26.80
2018-02-14T02:07:17.974Z,27.50
2018-02-14T02:09:44.600Z,26.42
2018-02-14T02:12:11.219Z,27.87
2018-02-14T02:14:37.834Z,26.87
2018-02-14T02:17:04.462Z,25.85
2018-02-14T02:19:31.128Z,26.87
2018-02-14T02:21:57.741Z,27.87
2018-02-14T02:24:24.369Z,26.10
2018-02-14T02:26:51.088Z,27.00
2018-02-14T02:29:17.781Z,25.55
2018-02-14T02:31:44.422Z,26.50
2018-02-14T02:34:11.146Z,26.15
2018-02-14T02:36:37.757Z,26.55
2018-02-14T02:39:10.385Z,27.20
2018-02-14T02:41:37.068Z,29.00
2018-02-14T02:44:03.679Z,27.55
2018-02-14T02:46:30.313Z,26.60
2018-02-14T02:48:56.947Z,28.25
2018-02-14T02:51:23.581Z,26.92
2018-02-14T02:53:50.210Z,26.10
2018-02-14T02:56:16.857Z,26.20
2018-02-14T02:58:43.471Z,26.45
2018-02-14T03:01:10.138Z,26.87
2018-02-14T03:03:36.748Z,26.12
2018-02-14T03:06:03.380Z,26.37
2018-02-14T03:08:30.063Z,26.73
2018-02-14T03:10:56.694Z,26.37
2018-02-14T03:13:23.306Z,24.25
2018-02-14T03:15:49.921Z,25.52
2018-02-14T03:18:16.609Z,25.25
2018-02-14T03:20:43.220Z,26.23
2018-02-14T03:23:09.834Z,28.12
2018-02-14T03:25:36.525Z,26.87
2018-02-14T03:28:03.141Z,27.42
2018-02-14T03:30:29.811Z,23.90
2018-02-14T03:32:56.550Z,28.00
2018-02-14T03:35:23.189Z,26.45
2018-02-14T03:37:49.805Z,25.25
2018-02-14T03:40:16.439Z,26.20
2018-02-14T03:42:43.058Z,24.95
2018-02-14T03:45:09.745Z,25.33
2018-02-14T03:47:36.385Z,23.95
2018-02-14T03:50:02.994Z,25.70
2018-02-14T03:52:29.660Z,25.48
2018-02-14T03:54:56.302Z,25.88
2018-02-14T03:57:22.918Z,25.95
2018-02-14T03:59:49.559Z,25.50
2018-02-14T04:02:16.174Z,25.90
2018-02-14T04:04:42.784Z,24.33
2018-02-14T04:07:09.417Z,24.92
2018-02-14T04:09:36.039Z,24.83
2018-02-14T04:12:02.713Z,25.62
2018-02-14T04:14:29.337Z,24.17
2018-02-14T04:16:55.950Z,23.77
2018-02-14T04:19:22.565Z,25.48
2018-02-14T04:21:49.188Z,24.67
2018-02-14T04:24:15.909Z,24.75
2018-02-14T04:26:42.521Z,24.48
2018-02-14T04:29:09.249Z,24.45
2018-02-14T04:31:35.861Z,25.42
2018-02-14T04:34:02.493Z,24.98
2018-02-14T04:36:29.207Z,25.70
2018-02-14T04:38:55.905Z,24.90
2018-02-14T04:41:22.537Z,25.02
2018-02-14T04:43:49.153Z,26.87
2018-02-14T04:46:15.864Z,25.15
2018-02-14T04:48:42.484Z,25.00
2018-02-14T04:51:09.122Z,25.25
2018-02-14T04:53:35.774Z,24.92
2018-02-14T04:56:02.384Z,24.08
2018-02-14T04:58:29.013Z,25.15
2018-02-14T05:00:55.661Z,27.52
2018-02-14T05:03:22.287Z,25.70
2018-02-14T05:05:48.902Z,24.90
2018-02-14T05:08:15.536Z,25.10
2018-02-14T05:10:42.150Z,25.90
2018-02-14T05:13:08.767Z,25.90
2018-02-14T05:15:35.400Z,25.52
2018-02-14T05:18:02.018Z,25.65
2018-02-14T05:20:28.633Z,25.12
2018-02-14T05:22:55.349Z,25.62
2018-02-14T05:25:21.962Z,24.70
2018-02-14T05:27:48.575Z,25.45
2018-02-14T05:30:15.220Z,26.00
2018-02-14T05:32:41.907Z,25.77
2018-02-14T05:35:08.605Z,25.75
2018-02-14T05:37:35.349Z,26.00
2018-02-14T05:40:02.028Z,26.73
2018-02-14T05:42:28.654Z,26.65
2018-02-14T05:44:55.273Z,26.05
2018-02-14T05:47:21.884Z,25.60
2018-02-14T05:49:48.522Z,31.17
2018-02-14T05:52:15.215Z,31.10
2018-02-14T05:54:41.825Z,28.17
2018-02-14T05:57:08.442Z,27.02
2018-02-14T05:59:35.101Z,26.77
2018-02-14T06:02:01.754Z,28.17
2018-02-14T06:04:28.385Z,27.98
2018-02-14T06:06:55.437Z,27.23
2018-02-14T06:09:24.311Z,27.75
2018-02-14T06:11:51.195Z,26.50
2018-02-14T06:14:17.906Z,27.67
2018-02-14T06:16:44.605Z,26.95
2018-02-14T06:19:11.339Z,28.10
2018-02-14T06:21:38.138Z,27.35
2018-02-14T06:24:05.093Z,26.33
2018-02-14T06:26:32.371Z,25.08
2018-02-14T06:28:59.317Z,28.12
2018-02-14T06:31:26.069Z,27.25
2018-02-14T06:33:53.229Z,25.90
2018-02-14T06:36:20.358Z,24.05
2018-02-14T06:38:47.205Z,28.25
2018-02-14T06:41:13.912Z,26.73
2018-02-14T06:43:40.892Z,25.70
2018-02-14T06:46:08.247Z,27.73
2018-02-14T06:48:35.121Z,28.17
2018-02-14T06:51:01.877Z,28.25
2018-02-14T06:53:29.292Z,27.02
2018-02-14T06:56:02.421Z,27.23
2018-02-14T06:58:30.414Z,25.92
2018-02-14T07:00:57.230Z,27.83
2018-02-14T07:03:23.970Z,27.40
2018-02-14T07:05:50.815Z,27.33
2018-02-14T07:08:17.548Z,29.10
2018-02-14T07:10:44.225Z,27.10
2018-02-14T07:13:11.164Z,25.40
2018-02-14T07:15:37.865Z,26.40
2018-02-14T07:18:04.585Z,26.45
2018-02-14T07:20:32.394Z,24.95
2018-02-14T07:22:59.054Z,25.40
2018-02-14T07:25:25.851Z,25.65
2018-02-14T07:27:52.575Z,24.10
2018-02-14T07:30:19.946Z,25.17
2018-02-14T07:32:46.749Z,25.42
2018-02-14T07:35:13.554Z,23.60
2018-02-14T07:37:40.986Z,24.33
2018-02-14T07:40:07.953Z,23.50
2018-02-14T07:42:34.753Z,25.25
2018-02-14T07:45:01.617Z,25.00
2018-02-14T07:47:28.547Z,23.33
2018-02-14T07:49:55.256Z,24.37
2018-02-14T07:52:22.374Z,25.30
2018-02-14T07:54:49.274Z,25.45
2018-02-14T07:57:16.013Z,25.27
2018-02-14T07:59:42.695Z,25.20
2018-02-14T08:02:09.365Z,24.50
2018-02-14T08:04:36.052Z,22.45
2018-02-14T08:07:02.708Z,24.10
2018-02-14T08:09:29.438Z,26.23
2018-02-14T08:11:56.104Z,24.20
2018-02-14T08:14:22.775Z,25.92
2018-02-14T08:16:49.484Z,25.80
2018-02-14T08:19:16.201Z,24.23
2018-02-14T08:21:42.862Z,25.20
2018-02-14T08:24:09.552Z,25.92
2018-02-14T08:26:36.214Z,25.27
2018-02-14T08:29:02.838Z,24.83
2018-02-14T08:31:29.456Z,23.52
2018-02-14T08:33:56.129Z,24.75
2018-02-14T08:36:22.831Z,24.58
2018-02-14T08:38:49.518Z,24.40
2018-02-14T08:41:16.165Z,24.95
2018-02-14T08:43:42.852Z,23.65
2018-02-14T08:46:09.559Z,24.87
2018-02-14T08:48:36.216Z,24.50
2018-02-14T08:51:02.864Z,24.52
2018-02-14T08:53:30.401Z,23.73
2018-02-14T08:55:57.088Z,23.10
2018-02-14T08:58:23.722Z,25.12
2018-02-14T09:00:50.337Z,22.65
2018-02-14T09:03:16.996Z,24.80
2018-02-14T09:05:43.614Z,23.33
2018-02-14T09:08:10.274Z,24.00
2018-02-14T09:10:36.907Z,23.73
2018-02-14T09:13:03.551Z,22.33
2018-02-14T09:15:30.230Z,23.42
2018-02-14T09:17:56.928Z,23.38
2018-02-14T09:20:23.545Z,23.05
2018-02-14T10:16:28.694Z,25.48
2018-02-14T10:21:21.603Z,25.10
2018-02-14T10:23:48.240Z,26.95
2018-02-14T10:26:14.856Z,26.37
2018-02-14T10:28:41.576Z,24.85
2018-02-14T10:31:08.190Z,22.00
2018-02-14T10:33:34.802Z,24.50
2018-02-14T10:36:01.538Z,23.52
2018-02-14T10:38:28.146Z,24.90
2018-02-14T10:40:54.773Z,23.23
2018-02-14T10:43:21.402Z,22.42
2018-02-14T10:45:48.027Z,25.40
2018-02-14T10:48:14.640Z,23.50
2018-02-14T10:50:41.334Z,23.40
2018-02-14T10:53:07.950Z,21.92
2018-02-14T10:55:34.567Z,21.35
2018-02-14T10:58:01.195Z,21.35
2018-02-14T11:00:33.665Z,22.30
2018-02-14T11:03:06.034Z,22.75
2018-02-14T11:05:32.677Z,21.98
2018-02-14T11:07:59.377Z,22.37
2018-02-14T11:10:26.006Z,21.65
2018-02-14T11:12:52.612Z,20.62
2018-02-14T11:15:19.294Z,21.20
2018-02-14T11:17:45.970Z,20.45
2018-02-14T11:20:12.585Z,19.92
2018-02-14T11:22:39.212Z,17.50
2018-02-14T11:25:05.857Z,17.67
2018-02-14T11:27:32.530Z,17.12
2018-02-14T11:29:59.161Z,17.40
2018-02-14T11:32:25.797Z,16.75
2018-02-14T11:34:52.551Z,16.45
2018-02-14T11:37:19.182Z,15.52
2018-02-14T11:39:45.798Z,16.40
2018-02-14T11:42:12.409Z,15.93
2018-02-14T11:44:39.109Z,14.80
2018-02-14T11:47:05.721Z,16.75
2018-02-14T11:49:32.341Z,16.92
2018-02-14T11:51:59.089Z,16.90
2018-02-14T12:01:44.326Z,13.32
2018-02-14T12:04:10.937Z,14.15
2018-02-14T12:06:38.672Z,15.77
2018-02-14T12:09:05.320Z,9.80
2018-02-14T12:11:32.553Z,10.90
2018-02-14T12:13:59.662Z,11.07
2018-02-14T12:16:26.442Z,11.30
2018-02-14T12:18:53.141Z,10.35
2018-02-14T12:26:12.689Z,16.60
2018-02-14T12:28:39.290Z,10.25
2018-02-14T12:31:05.910Z,10.20
2018-02-14T12:35:59.134Z,21.98
2018-02-14T12:38:25.841Z,16.37
2018-02-14T12:48:11.182Z,11.90
2018-02-14T12:50:37.850Z,9.80
2018-02-14T12:53:04.461Z,10.25
2018-02-14T12:55:31.084Z,9.52
2018-02-14T12:57:57.712Z,15.00
2018-02-14T13:00:24.321Z,19.75
2018-02-14T13:02:50.949Z,19.77
2018-02-14T13:05:17.564Z,17.80
2018-02-14T13:07:44.221Z,22.75
2018-02-14T13:10:10.921Z,10.70
2018-02-14T13:12:37.561Z,14.32
2018-02-14T13:15:04.164Z,9.07
2018-02-14T13:17:30.806Z,14.07
2018-02-14T13:19:57.473Z,19.12
2018-02-14T13:22:24.078Z,8.38
2018-02-14T13:24:50.705Z,16.35
2018-02-14T13:27:17.400Z,10.15
2018-02-14T13:29:44.018Z,9.70
2018-02-14T13:32:10.630Z,9.43
2018-02-14T13:34:37.242Z,24.80
2018-02-14T13:37:03.866Z,9.32
2018-02-14T13:39:30.589Z,11.55
2018-02-14T13:41:57.237Z,7.72
2018-02-14T13:46:50.093Z,9.70
2018-02-14T13:49:16.781Z,9.20
2018-02-14T13:51:43.384Z,8.70
2018-02-14T13:59:02.573Z,8.50
2018-02-14T14:01:29.221Z,47.13
2018-02-14T14:03:55.850Z,10.60
2018-02-14T14:06:22.465Z,10.20
2018-02-14T14:08:49.319Z,9.17
2018-02-14T14:11:16.634Z,12.15
2018-02-14T14:13:43.270Z,9.02
2018-02-14T14:16:10.219Z,10.90
2018-02-14T14:21:03.262Z,11.10
2018-02-14T14:25:56.469Z,10.23
2018-02-14T14:47:55.030Z,8.18
2018-02-14T14:50:21.754Z,8.82
2018-02-14T14:57:40.997Z,8.10
2018-02-14T15:00:07.635Z,10.07
2018-02-14T15:02:34.258Z,9.25
2018-02-14T15:05:00.909Z,8.38
2018-02-14T15:07:27.526Z,8.63
2018-02-14T15:09:54.230Z,8.20
2018-02-14T15:12:20.930Z,8.88
2018-02-14T15:14:47.533Z,7.40
2018-02-14T15:26:59.125Z,8.68
2018-02-14T15:39:10.797Z,7.80
2018-02-14T15:51:22.445Z,8.25
2018-02-14T16:01:07.791Z,7.55
2018-02-14T16:03:34.414Z,6.80
2018-02-14T16:06:01.034Z,8.50
2018-02-14T16:08:27.657Z,7.80
2018-02-14T16:23:05.304Z,11.52
2018-02-14T16:25:31.908Z,9.10
2018-02-14T16:27:58.554Z,9.27
2018-02-14T16:30:25.278Z,9.23
2018-02-14T16:32:51.972Z,9.57
2018-02-14T16:35:18.581Z,10.65
2018-02-14T16:37:45.324Z,12.40
2018-02-14T16:40:11.937Z,12.00
2018-02-14T16:42:38.632Z,12.57
2018-02-14T16:45:05.333Z,14.38
2018-02-14T16:47:32.013Z,12.88
2018-02-14T16:49:58.641Z,12.85
2018-02-14T16:52:25.356Z,13.88
2018-02-14T16:54:52.035Z,13.20
2018-02-14T16:57:18.678Z,16.52
2018-02-14T16:59:45.291Z,27.20
2018-02-14T17:02:12.010Z,26.95
2018-02-14T17:04:38.641Z,25.73
2018-02-14T17:07:05.902Z,17.02
2018-02-14T17:09:32.512Z,14.27
2018-02-14T17:11:59.177Z,16.50
2018-02-14T17:14:25.801Z,16.15
2018-02-14T17:16:52.409Z,16.75
2018-02-14T17:19:19.038Z,15.95
2018-02-14T17:21:45.651Z,16.08
2018-02-14T17:24:12.381Z,16.95
2018-02-14T17:26:39.010Z,18.85
2018-02-14T17:29:05.622Z,17.08
2018-02-14T17:31:32.238Z,16.10
2018-02-14T17:33:58.861Z,27.90
2018-02-14T17:36:25.473Z,23.27
2018-02-14T17:38:52.102Z,19.05
2018-02-14T17:41:18.722Z,21.55
2018-02-14T17:43:45.407Z,21.20
2018-02-14T17:46:12.067Z,28.33
2018-02-14T17:48:38.713Z,33.33
2018-02-14T17:51:05.406Z,42.95
2018-02-14T17:53:32.025Z,53.85
2018-02-14T17:55:58.642Z,51.75
2018-02-14T17:58:25.322Z,45.20
2018-02-14T18:00:52.004Z,39.10
2018-02-14T18:03:18.625Z,26.40
2018-02-14T18:05:45.253Z,29.12
2018-02-14T18:08:11.865Z,27.65
2018-02-14T18:10:38.522Z,21.02
2018-02-14T18:13:05.134Z,20.70
2018-02-14T18:15:31.800Z,20.12
2018-02-14T18:17:58.419Z,19.90
2018-02-14T18:20:25.074Z,19.75
2018-02-14T18:22:51.701Z,18.90
2018-02-14T18:25:18.312Z,18.90
2018-02-14T18:27:44.926Z,20.75
2018-02-14T18:30:11.554Z,22.20
2018-02-14T18:32:38.169Z,16.17
2018-02-14T18:35:04.797Z,18.05
2018-02-14T18:37:31.419Z,20.62
2018-02-14T18:39:58.085Z,23.87
2018-02-14T18:42:24.717Z,23.70
2018-02-14T18:44:51.364Z,35.55
2018-02-14T18:47:17.978Z,26.35
2018-02-14T18:49:44.613Z,25.12
2018-02-14T18:52:11.225Z,28.70
2018-02-14T18:54:37.926Z,24.25
2018-02-14T18:57:04.553Z,28.25
2018-02-14T18:59:31.161Z,26.40
2018-02-14T19:01:57.777Z,36.83
2018-02-14T19:04:24.405Z,29.52
2018-02-14T19:06:51.119Z,28.95
2018-02-14T19:09:17.758Z,27.02
2018-02-14T19:11:44.386Z,26.58
2018-02-14T19:14:10.997Z,22.98
2018-02-14T19:16:37.609Z,22.45
2018-02-14T19:19:04.320Z,26.55
2018-02-14T19:21:30.934Z,22.37
2018-02-14T19:23:57.593Z,21.37
2018-02-14T19:26:24.225Z,23.85
2018-02-14T19:28:50.835Z,20.52
2018-02-14T19:31:17.501Z,23.65
2018-02-14T19:33:44.133Z,26.05
2018-02-14T19:36:10.745Z,24.08
2018-02-14T19:38:37.436Z,24.30
2018-02-14T19:41:04.166Z,22.48
2018-02-14T19:43:30.806Z,24.15
2018-02-14T19:45:57.451Z,26.30
2018-02-14T19:48:24.082Z,28.08
2018-02-14T19:50:50.705Z,26.70
2018-02-14T19:53:17.325Z,34.20
2018-02-14T19:55:43.958Z,29.48
2018-02-14T19:58:10.646Z,31.67
2018-02-14T20:00:37.264Z,29.45
2018-02-14T20:03:03.882Z,29.50
2018-02-14T20:05:30.561Z,32.13
2018-02-14T20:07:57.306Z,30.55
2018-02-14T20:10:23.913Z,38.22
2018-02-14T20:12:50.578Z,35.35
2018-02-14T20:15:17.257Z,36.13
2018-02-14T20:17:43.866Z,30.55
2018-02-14T20:20:10.599Z,30.67
2018-02-14T20:22:37.242Z,30.62
2018-02-14T20:25:03.857Z,30.77
2018-02-14T20:27:30.485Z,33.40
2018-02-14T20:29:57.194Z,32.70
2018-02-14T20:32:23.803Z,31.48
2018-02-14T20:34:50.430Z,28.73
2018-02-14T20:37:17.112Z,28.45
2018-02-14T20:39:43.746Z,30.05
2018-02-14T20:42:10.358Z,29.33
2018-02-14T20:44:36.984Z,28.15
2018-02-14T20:47:03.704Z,28.05
2018-02-14T20:49:30.290Z,27.55
2018-02-14T20:51:56.913Z,24.20
2018-02-14T20:54:23.549Z,22.92
2018-02-14T20:56:50.226Z,23.45
2018-02-14T20:59:16.894Z,24.48
2018-02-14T21:01:43.508Z,25.37
2018-02-14T21:04:10.226Z,25.08
2018-02-14T21:06:36.942Z,24.60
2018-02-14T21:09:03.553Z,27.50
2018-02-14T21:11:30.166Z,26.37
2018-02-14T21:13:56.799Z,29.05
2018-02-14T21:16:23.496Z,30.33
2018-02-14T21:18:50.105Z,26.20
2018-02-14T21:21:16.734Z,25.20
2018-02-14T21:23:43.418Z,30.45
2018-02-14T21:26:10.043Z,33.50
2018-02-14T21:28:36.657Z,47.55
2018-02-14T21:31:03.343Z,31.65
2018-02-14T21:33:29.973Z,26.40
2018-02-14T21:35:56.613Z,26.35
2018-02-14T21:38:23.238Z,24.00
2018-02-14T21:40:49.897Z,23.55
2018-02-14T21:43:16.515Z,21.80
2018-02-14T21:45:43.142Z,24.65
2018-02-14T21:48:09.754Z,24.77
2018-02-14T21:50:36.384Z,24.73
2018-02-14T21:53:03.085Z,24.55
2018-02-14T21:55:29.702Z,23.55
2018-02-14T21:57:56.367Z,23.67
2018-02-14T22:00:22.968Z,27.33
2018-02-14T22:02:49.688Z,22.40
2018-02-14T22:05:16.385Z,23.52
2018-02-14T22:07:42.998Z,19.85
2018-02-14T22:10:09.666Z,20.12
2018-02-14T22:12:36.297Z,22.15
2018-02-14T22:15:02.942Z,21.10
2018-02-14T22:17:29.554Z,21.58
2018-02-14T22:19:56.185Z,23.12
2018-02-14T22:22:22.853Z,23.75
2018-02-14T22:24:49.497Z,21.62
2018-02-14T22:27:16.122Z,23.10
2018-02-14T22:29:42.741Z,22.60
2018-02-14T22:32:09.425Z,20.37
2018-02-14T22:34:36.037Z,19.45
2018-02-14T22:37:02.697Z,21.50
2018-02-14T22:39:29.321Z,20.67
2018-02-14T22:41:55.937Z,20.48
2018-02-14T22:44:22.553Z,25.98
2018-02-14T22:46:49.246Z,20.55
2018-02-14T22:49:15.886Z,21.02
2018-02-14T22:51:42.524Z,21.30
2018-02-14T22:54:09.174Z,18.87
2018-02-14T22:56:35.794Z,19.90
2018-02-14T22:59:02.409Z,20.37
2018-02-14T23:01:29.085Z,20.67
2018-02-14T23:03:55.721Z,20.35
2018-02-14T23:06:22.346Z,19.92
2018-02-14T23:08:49.108Z,22.17
2018-02-14T23:11:15.714Z,21.67
2018-02-14T23:13:42.322Z,20.02
2018-02-14T23:16:08.953Z,19.00
2018-02-14T23:18:35.597Z,17.95
2018-02-14T23:21:02.209Z,20.02
2018-02-14T23:23:28.938Z,19.27
2018-02-14T23:25:55.572Z,19.62
2018-02-14T23:28:22.221Z,19.30
2018-02-14T23:30:48.829Z,20.35
2018-02-14T23:33:15.498Z,20.95
2018-02-14T23:35:42.233Z,20.27
2018-02-14T23:38:08.845Z,20.45
2018-02-14T23:40:35.517Z,22.02
2018-02-14T23:43:02.150Z,21.67
2018-02-14T23:45:28.834Z,22.45
2018-02-14T23:47:55.440Z,21.85
2018-02-14T23:50:22.073Z,22.87
2018-02-14T23:52:48.714Z,21.35
2018-02-14T23:55:15.353Z,21.00
2018-02-14T23:57:42.090Z,20.95
